^^
Saratoga-Weather Station Historical Data
Daily Summary for September 11, 2021 Units:  English    Metric   Both
Daily Weekly Monthly Yearly Custom
  High: Low: Average:
Temperature: 30.2 °F 18.7 °F 23.4 °F
Dew Point: 22.8 °F 15.8 °F 19 °F
Humidity: 93% 65% 84%
Wind Speed: 13mph 0mph 1.8mph
Wind Gust: 14mph - -
Wind- - East
Pressure: 30.4 in 30.2 in -
Precipitation: 0 in    
Historical Graphs
 
 
Tabular Data for September 11, 2021
Time Temperature Dew Point Pressure Wind Wind Speed Wind Gust Humidity Rainfall Rate (Hourly) solar
00:04 19.8 °F 16.3 °F 30.2 in Calm     86% 0 in 0 W/m2
00:09 19.6 °F 16.2 °F 30.2 in Calm     86% 0 in 0 W/m2
00:14 19.4 °F 16.2 °F 30.2 in Calm     87% 0 in 0 W/m2
00:19 19.2 °F 16 °F 30.2 in Calm     87% 0 in 0 W/m2
00:24 19 °F 15.8 °F 30.2 in Calm     87% 0 in 0 W/m2
00:29 19 °F 16.2 °F 30.2 in Calm   1 mph 88% 0 in 0 W/m2
00:34 19 °F 16.2 °F 30.2 in Calm     88% 0 in 0 W/m2
00:39 19 °F 16.2 °F 30.2 in Calm     88% 0 in 0 W/m2
00:44 19 °F 16.3 °F 30.2 in Calm     89% 0 in 0 W/m2
00:49 19 °F 16.3 °F 30.2 in Calm     89% 0 in 0 W/m2
00:54 19 °F 16.3 °F 30.2 in Calm     89% 0 in 0 W/m2
00:59 18.9 °F 16.2 °F 30.2 in Calm     89% 0 in 0 W/m2
01:04 19 °F 16.5 °F 30.2 in Calm     90% 0 in 0 W/m2
01:09 19 °F 16.5 °F 30.2 in Calm     90% 0 in 0 W/m2
01:14 19 °F 16.5 °F 30.2 in Calm     90% 0 in 0 W/m2
01:19 19 °F 16.5 °F 30.2 in Calm     90% 0 in 0 W/m2
01:24 19.2 °F 16.7 °F 30.2 in Calm   1 mph 90% 0 in 0 W/m2
01:29 19.2 °F 16.7 °F 30.2 in Calm     90% 0 in 0 W/m2
01:34 19.2 °F 16.7 °F 30.2 in Calm     90% 0 in 0 W/m2
01:39 19.2 °F 16.7 °F 30.2 in Calm   1 mph 90% 0 in 0 W/m2
01:44 19 °F 16.3 °F 30.2 in SE 0.9 mph 1 mph 89% 0 in 0 W/m2
01:49 19 °F 16.3 °F 30.2 in Calm   1 mph 89% 0 in 0 W/m2
01:54 18.9 °F 16.3 °F 30.2 in Calm   1 mph 90% 0 in 0 W/m2
01:59 18.9 °F 16.3 °F 30.2 in Calm     90% 0 in 0 W/m2
02:04 18.7 °F 16.2 °F 30.2 in Calm   1 mph 90% 0 in 0 W/m2
02:09 18.7 °F 16.2 °F 30.2 in Calm     90% 0 in 0 W/m2
02:14 18.9 °F 16.3 °F 30.2 in Calm     90% 0 in 0 W/m2
02:19 18.9 °F 16.7 °F 30.2 in Calm     91% 0 in 0 W/m2
02:24 19.2 °F 17.1 °F 30.2 in Calm     91% 0 in 0 W/m2
02:29 19.6 °F 17.4 °F 30.2 in Calm     91% 0 in 0 W/m2
02:34 19.8 °F 17.6 °F 30.2 in SE 0.9 mph 2 mph 91% 0 in 0 W/m2
02:39 20.1 °F 18 °F 30.2 in Calm   1 mph 91% 0 in 0 W/m2
02:44 20.3 °F 18.1 °F 30.2 in Calm   2 mph 91% 0 in 0 W/m2
02:49 20.5 °F 18 °F 30.2 in Calm     90% 0 in 0 W/m2
02:54 20.3 °F 17.8 °F 30.2 in Calm   2 mph 90% 0 in 0 W/m2
02:59 20.3 °F 17.6 °F 30.2 in SE 0.9 mph 1 mph 89% 0 in 0 W/m2
03:04 20.1 °F 17.4 °F 30.2 in Calm   1 mph 89% 0 in 0 W/m2
03:09 20.1 °F 17.4 °F 30.2 in SE 0.9 mph 1 mph 89% 0 in 0 W/m2
03:14 20.1 °F 17.6 °F 30.2 in Calm   1 mph 90% 0 in 0 W/m2
03:19 20.1 °F 17.6 °F 30.2 in SE 0.9 mph 2 mph 90% 0 in 0 W/m2
03:24 20.1 °F 17.6 °F 30.2 in Calm   1 mph 90% 0 in 0 W/m2
03:29 20.3 °F 17.8 °F 30.2 in Calm     90% 0 in 0 W/m2
03:34 20.3 °F 17.8 °F 30.2 in Calm   1 mph 90% 0 in 0 W/m2
03:39 20.3 °F 17.6 °F 30.2 in Calm     89% 0 in 0 W/m2
03:44 20.1 °F 17.4 °F 30.2 in Calm     89% 0 in 0 W/m2
03:49 20.1 °F 17.4 °F 30.2 in Calm     89% 0 in 0 W/m2
03:54 19.9 °F 17.4 °F 30.2 in Calm     90% 0 in 0 W/m2
03:59 19.9 °F 17.4 °F 30.2 in Calm     90% 0 in 0 W/m2
04:04 19.9 °F 17.4 °F 30.2 in Calm     90% 0 in 0 W/m2
04:09 19.8 °F 17.2 °F 30.2 in Calm     90% 0 in 0 W/m2
04:14 19.9 °F 17.8 °F 30.2 in Calm     91% 0 in 0 W/m2
04:19 19.9 °F 17.8 °F 30.2 in Calm     91% 0 in 0 W/m2
04:24 19.9 °F 17.8 °F 30.2 in Calm     91% 0 in 0 W/m2
04:29 19.8 °F 17.6 °F 30.2 in Calm     91% 0 in 0 W/m2
04:34 19.8 °F 17.6 °F 30.2 in Calm     91% 0 in 0 W/m2
04:39 19.8 °F 17.6 °F 30.2 in Calm   1 mph 91% 0 in 0 W/m2
04:44 19.9 °F 17.8 °F 30.2 in Calm   1 mph 91% 0 in 0 W/m2
04:49 20.1 °F 18 °F 30.2 in Calm     91% 0 in 0 W/m2
04:54 20.1 °F 18 °F 30.2 in Calm     91% 0 in 0 W/m2
04:59 20.1 °F 18 °F 30.2 in Calm   1 mph 91% 0 in 0 W/m2
05:04 19.9 °F 17.8 °F 30.2 in Calm     91% 0 in 0 W/m2
05:09 19.8 °F 17.2 °F 30.2 in Calm     90% 0 in 0 W/m2
05:14 19.6 °F 17.1 °F 30.2 in Calm     90% 0 in 0 W/m2
05:19 19.6 °F 17.4 °F 30.2 in Calm     91% 0 in 0 W/m2
05:24 19.2 °F 17.1 °F 30.3 in Calm     91% 0 in 0 W/m2
05:29 19.2 °F 17.1 °F 30.3 in Calm   1 mph 91% 0 in 0 W/m2
05:34 19 °F 16.9 °F 30.3 in Calm     91% 0 in 0 W/m2
05:40 19 °F 16.9 °F 30.3 in Calm     91% 0 in 0 W/m2
05:45 19 °F 16.9 °F 30.3 in Calm   1 mph 91% 0 in 0 W/m2
05:50 18.9 °F 16.7 °F 30.3 in Calm     91% 0 in 0 W/m2
05:55 18.9 °F 16.7 °F 30.3 in Calm   1 mph 91% 0 in 0 W/m2
06:00 18.9 °F 16.7 °F 30.3 in Calm   1 mph 91% 0 in 0 W/m2
06:05 18.9 °F 16.9 °F 30.3 in Calm     92% 0 in 0 W/m2
06:10 18.9 °F 16.9 °F 30.3 in Calm   1 mph 92% 0 in 0 W/m2
06:15 19 °F 17.1 °F 30.3 in Calm   1 mph 92% 0 in 0 W/m2
06:20 19.2 °F 17.6 °F 30.3 in Calm   1 mph 93% 0 in 0 W/m2
06:25 19.6 °F 17.6 °F 30.3 in Calm     92% 0 in 0 W/m2
06:30 19.8 °F 18.1 °F 30.3 in Calm     93% 0 in 0 W/m2
06:35 19.8 °F 17.8 °F 30.3 in Calm     92% 0 in 0 W/m2
06:40 19.8 °F 17.8 °F 30.3 in Calm     92% 0 in 0 W/m2
06:45 19.9 °F 18 °F 30.3 in Calm     92% 0 in 0 W/m2
06:50 19.9 °F 18 °F 30.3 in Calm     92% 0 in 0 W/m2
06:55 20.1 °F 18.1 °F 30.3 in Calm     92% 0 in 0 W/m2
07:00 20.1 °F 18.1 °F 30.3 in Calm     92% 0 in 0 W/m2
07:05 20.5 °F 18.5 °F 30.3 in Calm     92% 0 in 0 W/m2
07:10 20.5 °F 18.5 °F 30.3 in Calm     92% 0 in 0 W/m2
07:15 20.5 °F 18.5 °F 30.3 in Calm     92% 0 in 0 W/m2
07:20 20.7 °F 18.7 °F 30.3 in Calm     92% 0 in 0 W/m2
07:25 20.7 °F 18.7 °F 30.3 in Calm     92% 0 in 0 W/m2
07:30 20.8 °F 18.7 °F 30.3 in Calm   1 mph 91% 0 in 0 W/m2
07:35 20.8 °F 18.7 °F 30.3 in West 0.9 mph 2 mph 91% 0 in 0 W/m2
07:40 21 °F 18.9 °F 30.3 in Calm     91% 0 in 0 W/m2
07:45 21 °F 18.9 °F 30.3 in Calm     91% 0 in 0 W/m2
07:50 21.2 °F 19 °F 30.3 in Calm     91% 0 in 0 W/m2
07:55 21.2 °F 18.7 °F 30.3 in North 0.9 mph 1 mph 90% 0 in 5 W/m2
08:00 21.4 °F 18.9 °F 30.3 in Calm   2 mph 90% 0 in 5 W/m2
08:05 21.4 °F 18.9 °F 30.3 in Calm   3 mph 90% 0 in 7 W/m2
08:10 21.6 °F 19 °F 30.3 in NE 0.9 mph 2 mph 90% 0 in 14 W/m2
08:15 21.6 °F 19 °F 30.3 in Calm   3 mph 90% 0 in 19 W/m2
08:21 21.6 °F 19 °F 30.3 in Calm   2 mph 90% 0 in 23 W/m2
08:25 21.7 °F 19.2 °F 30.3 in NE 2 mph 2 mph 90% 0 in 39 W/m2
08:30 21.7 °F 19.2 °F 30.3 in Calm   2 mph 90% 0 in 37 W/m2
08:35 21.7 °F 19 °F 30.3 in Calm   1 mph 89% 0 in 40 W/m2
08:40 21.7 °F 19 °F 30.3 in ESE 2.9 mph 4 mph 89% 0 in 49 W/m2
08:45 21.7 °F 19 °F 30.3 in Calm   2 mph 89% 0 in 58 W/m2
08:50 21.7 °F 19 °F 30.3 in Calm   4 mph 89% 0 in 33 W/m2
08:55 21.9 °F 19.2 °F 30.3 in Calm   3 mph 89% 0 in 72 W/m2
09:00 21.9 °F 19.2 °F 30.3 in East 0.9 mph 3 mph 89% 0 in 81 W/m2
09:06 22.1 °F 19.4 °F 30.3 in ENE 0.9 mph 2 mph 89% 0 in 53 W/m2
09:11 22.3 °F 19.6 °F 30.3 in ENE 0.9 mph 3 mph 89% 0 in 53 W/m2
09:16 22.3 °F 19.6 °F 30.3 in ESE 0.9 mph 6 mph 89% 0 in 65 W/m2
09:21 22.5 °F 19.8 °F 30.3 in East 0.9 mph 2 mph 89% 0 in 70 W/m2
09:26 22.6 °F 19.9 °F 30.3 in Calm   6 mph 89% 0 in 137 W/m2
09:31 22.8 °F 20.1 °F 30.3 in ENE 0.9 mph 3 mph 89% 0 in 167 W/m2
09:36 23.4 °F 20.7 °F 30.3 in ENE 0.9 mph 4 mph 89% 0 in 178 W/m2
09:41 23.7 °F 20.7 °F 30.3 in ESE 2.9 mph 3 mph 88% 0 in 120 W/m2
09:46 24.1 °F 21 °F 30.3 in East 0.9 mph 2 mph 88% 0 in 120 W/m2
09:51 24.4 °F 21.4 °F 30.3 in NE 4 mph 4 mph 88% 0 in 156 W/m2
09:56 24.6 °F 21.4 °F 30.3 in ENE 2.9 mph 8 mph 87% 0 in 153 W/m2
10:01 25 °F 21.7 °F 30.3 in NE 2 mph 6 mph 87% 0 in 181 W/m2
10:06 25.2 °F 21.9 °F 30.3 in SE 0.9 mph 4 mph 87% 0 in 174 W/m2
10:11 25.5 °F 21.9 °F 30.3 in ENE 4 mph 8 mph 86% 0 in 141 W/m2
10:16 25.5 °F 21.9 °F 30.3 in East 2 mph 3 mph 86% 0 in 134 W/m2
10:21 25.7 °F 22.1 °F 30.3 in East 2 mph 7 mph 86% 0 in 123 W/m2
10:26 25.9 °F 21.9 °F 30.3 in NE 0.9 mph 7 mph 85% 0 in 81 W/m2
10:31 25.7 °F 21.7 °F 30.3 in NE 2 mph 5 mph 85% 0 in 98 W/m2
10:36 25.7 °F 21.7 °F 30.3 in East 0.9 mph 6 mph 85% 0 in 107 W/m2
10:41 25.7 °F 21.7 °F 30.3 in East 2 mph 7 mph 85% 0 in 139 W/m2
10:46 25.9 °F 21.9 °F 30.3 in Calm   6 mph 85% 0 in 83 W/m2
10:51 26.1 °F 21.9 °F 30.3 in ENE 2.9 mph 6 mph 84% 0 in 109 W/m2
10:56 26.1 °F 21.9 °F 30.3 in ESE 0.9 mph 3 mph 84% 0 in 141 W/m2
11:01 26.2 °F 22.1 °F 30.3 in East 6 mph 6 mph 84% 0 in 90 W/m2
11:06 26.2 °F 21.7 °F 30.3 in East 8.9 mph 11 mph 83% 0 in 95 W/m2
11:11 26.4 °F 21.9 °F 30.3 in East 0.9 mph 7 mph 83% 0 in 221 W/m2
11:16 27 °F 22.3 °F 30.3 in ENE 4 mph 11 mph 82% 0 in 230 W/m2
11:21 27.5 °F 22.8 °F 30.3 in East 13 mph 13 mph 82% 0 in 183 W/m2
11:26 27.7 °F 22.3 °F 30.3 in ESE 4 mph 7 mph 80% 0 in 211 W/m2
11:31 27.9 °F 22.3 °F 30.3 in ENE 2.9 mph 8 mph 79% 0 in 160 W/m2
11:36 27.9 °F 22.3 °F 30.3 in East 2 mph 6 mph 79% 0 in 105 W/m2
11:41 27.7 °F 22.1 °F 30.4 in ESE 2.9 mph 6 mph 79% 0 in 70 W/m2
11:46 27.3 °F 21.7 °F 30.4 in ESE 2.9 mph 7 mph 79% 0 in 97 W/m2
11:51 27.1 °F 21.2 °F 30.4 in ESE 4 mph 7 mph 78% 0 in 69 W/m2
11:56 27.1 °F 21.6 °F 30.3 in ESE 4 mph 8 mph 79% 0 in 98 W/m2
12:01 27.1 °F 21.2 °F 30.3 in ESE 2.9 mph 7 mph 78% 0 in 107 W/m2
12:06 27.1 °F 21.2 °F 30.3 in SE 2.9 mph 8 mph 78% 0 in 93 W/m2
12:11 27.1 °F 20.8 °F 30.3 in SE 2.9 mph 7 mph 77% 0 in 95 W/m2
12:16 27.3 °F 21 °F 30.3 in ENE 2.9 mph 9 mph 77% 0 in 114 W/m2
12:21 27.3 °F 20.8 °F 30.3 in East 6 mph 7 mph 76% 0 in 121 W/m2
12:26 27.5 °F 20.7 °F 30.3 in NE 4 mph 11 mph 75% 0 in 120 W/m2
12:31 27.7 °F 20.8 °F 30.3 in East 4 mph 10 mph 75% 0 in 105 W/m2
12:36 27.9 °F 21 °F 30.3 in ESE 4 mph 9 mph 75% 0 in 155 W/m2
12:41 28 °F 21.4 °F 30.3 in East 6 mph 9 mph 76% 0 in 265 W/m2
12:46 28.2 °F 21.6 °F 30.3 in East 6.9 mph 8 mph 76% 0 in 204 W/m2
12:51 28.6 °F 21.9 °F 30.3 in ESE 4 mph 8 mph 76% 0 in 285 W/m2
12:56 28.6 °F 21.9 °F 30.3 in East 2 mph 8 mph 76% 0 in 97 W/m2
13:01 28.2 °F 21.6 °F 30.3 in NE 4 mph 6 mph 76% 0 in 86 W/m2
13:06 28 °F 21.7 °F 30.3 in ENE 2.9 mph 8 mph 77% 0 in 93 W/m2
13:11 28 °F 21.7 °F 30.3 in East 4.9 mph 8 mph 77% 0 in 123 W/m2
13:16 28 °F 21.7 °F 30.3 in ENE 4 mph 7 mph 77% 0 in 294 W/m2
13:21 28.4 °F 21.2 °F 30.3 in ENE 4 mph 10 mph 74% 0 in 174 W/m2
13:26 28.8 °F 20.3 °F 30.3 in ESE 11 mph 14 mph 70% 0 in 134 W/m2
13:31 28.9 °F 20.1 °F 30.3 in NNE 11 mph 11 mph 69% 0 in 246 W/m2
13:36 29.1 °F 19.6 °F 30.3 in East 10.1 mph 10 mph 67% 0 in 158 W/m2
13:41 29.1 °F 19.6 °F 30.3 in ESE 6.9 mph 11 mph 67% 0 in 165 W/m2
13:46 29.1 °F 19.9 °F 30.3 in ESE 0.9 mph 10 mph 68% 0 in 202 W/m2
13:51 29.1 °F 20.5 °F 30.3 in East 4 mph 11 mph 70% 0 in 148 W/m2
13:56 28.9 °F 20.5 °F 30.3 in East 4.9 mph 13 mph 70% 0 in 109 W/m2
14:01 28.8 °F 20.5 °F 30.3 in ENE 4 mph 10 mph 71% 0 in 135 W/m2
14:06 28.8 °F 20.3 °F 30.3 in NE 8.9 mph 13 mph 70% 0 in 153 W/m2
14:11 28.8 °F 20.3 °F 30.3 in North 0.9 mph 7 mph 70% 0 in 156 W/m2
14:16 28.8 °F 20.3 °F 30.3 in East 4.9 mph 11 mph 70% 0 in 139 W/m2
14:21 28.8 °F 19.9 °F 30.3 in ESE 6 mph 14 mph 69% 0 in 86 W/m2
14:26 28.6 °F 20.1 °F 30.3 in East 2 mph 8 mph 70% 0 in 104 W/m2
14:34 28.6 °F 19.8 °F 30.3 in NE 0.9 mph 14 mph 69% 0 in 174 W/m2
14:36 28.8 °F 19.9 °F 30.3 in NNE 13 mph 13 mph 69% 0 in 146 W/m2
14:41 28.9 °F 19.4 °F 30.3 in North 2.9 mph 14 mph 67% 0 in 113 W/m2
14:48 29.1 °F 19.9 °F 30.3 in NE 6 mph 12 mph 68% 0 in 165 W/m2
14:51 29.7 °F 20.1 °F 30.3 in East 2.9 mph 14 mph 67% 0 in 185 W/m2
14:56 29.8 °F 20.3 °F 30.3 in East 2.9 mph 8 mph 67% 0 in 216 W/m2
15:01 30 °F 20.5 °F 30.3 in North 4 mph 11 mph 67% 0 in 153 W/m2
15:06 30.2 °F 19.9 °F 30.3 in ENE 4.9 mph 9 mph 65% 0 in 116 W/m2
15:11 30 °F 19.8 °F 30.3 in ENE 6 mph 9 mph 65% 0 in 185 W/m2
15:16 30 °F 20.5 °F 30.3 in East 2.9 mph 8 mph 67% 0 in 137 W/m2
15:21 29.8 °F 20.3 °F 30.3 in NE 2 mph 9 mph 67% 0 in 132 W/m2
15:26 29.8 °F 20.3 °F 30.3 in ENE 6.9 mph 12 mph 67% 0 in 162 W/m2
15:31 29.7 °F 20.1 °F 30.3 in ESE 2 mph 11 mph 67% 0 in 104 W/m2
15:36 29.5 °F 19.9 °F 30.3 in ENE 6.9 mph 8 mph 67% 0 in 114 W/m2
15:41 29.1 °F 19.6 °F 30.3 in NE 2.9 mph 10 mph 67% 0 in 56 W/m2
15:46 28.9 °F 19.4 °F 30.3 in ESE 2.9 mph 6 mph 67% 0 in 88 W/m2
15:51 28.9 °F 19.4 °F 30.4 in East 2 mph 7 mph 67% 0 in 72 W/m2
15:56 28.9 °F 19.8 °F 30.4 in ENE 4 mph 6 mph 68% 0 in 77 W/m2
16:01 28.9 °F 19.4 °F 30.3 in ENE 2.9 mph 4 mph 67% 0 in 70 W/m2
16:06 28.9 °F 19.4 °F 30.3 in NE 6.9 mph 9 mph 67% 0 in 88 W/m2
16:11 29.1 °F 19.6 °F 30.3 in NE 6.9 mph 10 mph 67% 0 in 76 W/m2
16:16 29.1 °F 19.2 °F 30.3 in ENE 8.9 mph 9 mph 66% 0 in 60 W/m2
16:21 29.3 °F 19.4 °F 30.3 in SE 4 mph 5 mph 66% 0 in 60 W/m2
Juneau County Weather
Compliments of Weather Underground - 4 mb